Pride Of Bruges — PGJW — position and weather

sailwx.info

Track history (hours):
 
Tides and Currents Weather Stations Pressure Air Temp Water Temp Dewpoint Dewpoint Depression Visibility Wind Speed Wind Dir Waves Ship Positions

Pride Of Bruges

Operator: P&O Ferries

Last reported at 2017-Jul-21 02:30 UTC. Time now 2017-Jul-21 02:33 UTC.
Position N 53°20' E 001°00'.

Length 180 m; draft 5.8 m.

Type: Ship (hazmat cat A). MMSI: 244387000.

Date/timePositionNaut miles runAvg speedWind from/ knotsBaromVisibWave heightAir tempDewpointWater temp
2017-Jul-21 02:30N 53°20' E 001°00'814.4
2017-Jul-21 01:58N 53°14' E 001°09'715.1
2017-Jul-21 01:30N 53°09' E 001°17'816.2
2017-Jul-21 01:00N 53°03' E 001°26'816.9
2017-Jul-21 00:30N 52°57' E 001°36'917.7
2017-Jul-21 00:00N 52°51' E 001°46'917.2
2017-Jul-20 23:30N 52°44' E 001°56'917.2
2017-Jul-20 23:00N 52°36' E 002°02'6415.6
2017-Jul-20 18:53N 51°38' E 002°45'615.6
2017-Jul-20 18:30N 51°33' E 002°51'815.5
2017-Jul-20 18:00N 51°27' E 002°58'714.5
2017-Jul-20 17:30N 51°24' E 003°08'4 6.9
2017-Jul-20 16:59N 51°20' E 003°11'0 0.0
2017-Jul-20 16:29N 51°20' E 003°11'0 0.0
2017-Jul-20 15:58N 51°20' E 003°11'0 0.0
2017-Jul-20 15:28N 51°20' E 003°11'0 0.0
2017-Jul-20 14:58N 51°20' E 003°11'0 0.0
2017-Jul-20 13:58N 51°20' E 003°11'0 0.0
2017-Jul-20 13:30N 51°20' E 003°11'0 0.0
2017-Jul-20 13:00N 51°20' E 003°11'0 0.0
2017-Jul-20 12:30N 51°20' E 003°11'0 0.0
2017-Jul-20 12:00N 51°20' E 003°11'0 0.0
2017-Jul-20 11:26N 51°20' E 003°11'0 0.0
2017-Jul-20 10:59N 51°20' E 003°11'0 0.0
2017-Jul-20 10:29N 51°20' E 003°11'0 0.0
2017-Jul-20 09:59N 51°20' E 003°11'0 0.0
2017-Jul-20 09:29N 51°20' E 003°11'0 0.0
2017-Jul-20 08:58N 51°20' E 003°11'0 0.0
2017-Jul-20 08:27N 51°20' E 003°11'0 0.0
2017-Jul-20 07:58N 51°20' E 003°11'0 0.0
2017-Jul-20 07:25N 51°20' E 003°11'0 0.0
2017-Jul-20 07:01N 51°20' E 003°11'2 3.8
2017-Jul-20 06:30N 51°22' E 003°11'815.8
2017-Jul-20 06:00N 51°25' E 002°59'815.5
2017-Jul-20 05:30N 51°30' E 002°49'815.8
2017-Jul-20 05:00N 51°36' E 002°41'816.8
2017-Jul-20 04:30N 51°44' E 002°38'4417.1
2017-Jul-20 01:56N 52°25' E 002°09'1316.6
2017-Jul-20 01:09N 52°37' E 002°01'8414.3
2017-Jul-19 19:15N 53°33' E 000°16'416.1
2017-Jul-19 18:59N 53°33' E 000°09'817.2
2017-Jul-19 18:30N 53°36' W 000°04'714.8
2017-Jul-19 18:00N 53°41' W 000°13'4 7.8
2017-Jul-19 17:30N 53°44' W 000°16'0 0.2
2017-Jul-19 17:00N 53°45' W 000°16'0 0.0
2017-Jul-19 16:28N 53°45' W 000°16'0 0.0
2017-Jul-19 15:58N 53°45' W 000°16'0 0.0
2017-Jul-19 15:28N 53°45' W 000°16'0 0.0
2017-Jul-19 14:55N 53°45' W 000°16'0 0.0
2017-Jul-19 14:30N 53°45' W 000°16'0 0.0
2017-Jul-19 14:00N 53°45' W 000°16'0 0.0
2017-Jul-19 13:30N 53°45' W 000°16'0 0.0
2017-Jul-19 13:00N 53°45' W 000°16'0 0.0
2017-Jul-19 12:30N 53°45' W 000°16'0 0.0
2017-Jul-19 11:59N 53°45' W 000°16'0 0.0
2017-Jul-19 11:29N 53°45' W 000°16'0 0.0
2017-Jul-19 10:59N 53°45' W 000°16'0 0.0
2017-Jul-19 10:29N 53°45' W 000°16'0 0.0
2017-Jul-19 09:59N 53°45' W 000°16'0 0.0
2017-Jul-19 09:28N 53°45' W 000°16'0 0.0
2017-Jul-19 08:58N 53°45' W 000°16'0 0.0
2017-Jul-19 08:28N 53°45' W 000°16'0 0.0
2017-Jul-19 07:58N 53°45' W 000°16'0 0.0
2017-Jul-19 07:30N 53°45' W 000°16'0 0.1
2017-Jul-19 07:00N 53°45' W 000°16'0 0.5
2017-Jul-19 06:31N 53°44' W 000°17'4 8.2
2017-Jul-19 06:00N 53°41' W 000°13'511.0
2017-Jul-19 05:31N 53°37' W 000°06'713.5
2017-Jul-19 05:00N 53°35' E 000°04'3713.6
2017-Jul-19 02:20N 53°19' E 000°60'514.4
2017-Jul-19 02:00N 53°16' E 001°05'714.0
2017-Jul-19 01:30N 53°11' E 001°13'714.0
2017-Jul-19 01:00N 53°06' E 001°21'714.1
2017-Jul-19 00:30N 53°00' E 001°28'714.3
2017-Jul-19 00:00N 52°55' E 001°36'815.0
2017-Jul-18 23:30N 52°50' E 001°45'815.2
2017-Jul-18 23:00N 52°45' E 001°54'816.5
2017-Jul-18 22:30N 52°37' E 002°00'816.8
2017-Jul-18 22:00N 52°29' E 002°05'916.9
2017-Jul-18 21:27N 52°21' E 002°11'817.3
2017-Jul-18 21:00N 52°14' E 002°16'917.1
2017-Jul-18 20:30N 52°06' E 002°22'816.9
2017-Jul-18 20:01N 51°58' E 002°28'816.9
2017-Jul-18 19:30N 51°51' E 002°34'816.6
2017-Jul-18 19:00N 51°43' E 002°40'816.3
2017-Jul-18 18:30N 51°36' E 002°47'816.2
2017-Jul-18 18:00N 51°30' E 002°55'815.4
2017-Jul-18 17:30N 51°25' E 003°04'612.7
2017-Jul-18 17:00N 51°21' E 003°12'0 0.7
2017-Jul-18 16:30N 51°20' E 003°11'0 0.0
2017-Jul-18 15:57N 51°20' E 003°11'0 0.0
2017-Jul-18 15:30N 51°20' E 003°11'0 0.0
2017-Jul-18 15:00N 51°20' E 003°11'0 0.0
2017-Jul-18 13:59N 51°20' E 003°11'0 0.0
2017-Jul-18 13:29N 51°20' E 003°11'0 0.0
2017-Jul-18 12:59N 51°20' E 003°11'0 0.0
2017-Jul-18 12:29N 51°20' E 003°11'0 0.0
2017-Jul-18 11:58N 51°20' E 003°11'0 0.0
2017-Jul-18 11:28N 51°20' E 003°11'0 0.0
2017-Jul-18 10:58N 51°20' E 003°11'0 0.0
2017-Jul-18 10:28N 51°20' E 003°11'0 0.0
2017-Jul-18 09:58N 51°20' E 003°11'0 0.0
2017-Jul-18 09:30N 51°20' E 003°11'0 0.0
2017-Jul-18 09:00N 51°20' E 003°11'0 0.0
2017-Jul-18 08:30N 51°20' E 003°11'0 0.0
2017-Jul-18 08:00N 51°20' E 003°11'0 0.0
2017-Jul-18 07:30N 51°20' E 003°11'0 0.0
2017-Jul-18 06:59N 51°20' E 003°11'1 2.2
2017-Jul-18 06:30N 51°21' E 003°12'815.1
2017-Jul-18 06:00N 51°25' E 003°01'815.0
2017-Jul-18 05:30N 51°29' E 002°51'815.7
2017-Jul-18 05:00N 51°35' E 002°43'816.0
2017-Jul-18 04:30N 51°42' E 002°37'816.5
2017-Jul-18 04:00N 51°50' E 002°33'917.4
2017-Jul-18 03:30N 51°58' E 002°28'917.8
2017-Jul-18 03:00N 52°06' E 002°23'918.1
2017-Jul-18 02:30N 52°15' E 002°17'918.2
2017-Jul-18 02:00N 52°23' E 002°11'918.1
2017-Jul-18 01:30N 52°31' E 002°05'918.4
2017-Jul-18 01:00N 52°40' E 001°59'918.0
2017-Jul-18 00:30N 52°47' E 001°50'918.0
2017-Jul-18 00:00N 52°52' E 001°38'917.5
2017-Jul-17 23:30N 52°57' E 001°25'917.4
2017-Jul-17 23:00N 53°00' E 001°12'1216.5
2017-Jul-17 22:16N 53°08' E 000°56'416.6
2017-Jul-17 22:00N 53°11' E 000°51'1716.5
2017-Jul-17 20:56N 53°23' E 000°30'816.5
2017-Jul-17 20:28N 53°29' E 000°21'715.2
2017-Jul-17 20:00N 53°33' E 000°11'714.2
2017-Jul-17 19:30N 53°35' E 000°00'713.3
2017-Jul-17 19:00N 53°38' W 000°10'612.2
2017-Jul-17 18:30N 53°43' W 000°15'1 2.7
2017-Jul-17 18:00N 53°44' W 000°16'0 0.2
2017-Jul-17 17:30N 53°45' W 000°16'0 0.0
2017-Jul-17 17:00N 53°45' W 000°16'0 0.0
2017-Jul-17 16:30N 53°45' W 000°16'0 0.0
2017-Jul-17 16:00N 53°45' W 000°16'0 0.0
2017-Jul-17 15:30N 53°45' W 000°16'0 0.0
2017-Jul-17 14:59N 53°45' W 000°16'0 0.0
2017-Jul-17 14:29N 53°45' W 000°16'0 0.0
2017-Jul-17 13:59N 53°45' W 000°16'0 0.0
2017-Jul-17 13:23N 53°45' W 000°16'0 0.0
2017-Jul-17 12:59N 53°45' W 000°16'0 0.0
2017-Jul-17 12:28N 53°45' W 000°16'0 0.0
2017-Jul-17 11:58N 53°45' W 000°16'0 0.0
2017-Jul-17 11:28N 53°45' W 000°16'0 0.0
2017-Jul-17 10:58N 53°45' W 000°16'0 0.0
2017-Jul-17 10:31N 53°45' W 000°16'0 0.0
2017-Jul-17 10:00N 53°45' W 000°16'0 0.0
2017-Jul-17 09:30N 53°45' W 000°16'0 0.0
2017-Jul-17 09:00N 53°45' W 000°16'0 0.0
2017-Jul-17 08:30N 53°45' W 000°16'0 0.0
2017-Jul-17 07:59N 53°45' W 000°16'0 0.0
2017-Jul-17 07:30N 53°45' W 000°16'0 0.2
2017-Jul-17 07:00N 53°44' W 000°16'1 1.4
2017-Jul-17 06:30N 53°44' W 000°16'713.9
2017-Jul-17 06:01N 53°38' W 000°10'713.3
2017-Jul-17 05:30N 53°35' E 000°00'714.0
2017-Jul-17 05:00N 53°33' E 000°12'3813.5
2017-Jul-17 02:11N 53°15' E 001°07'213.5
2017-Jul-17 02:00N 53°13' E 001°10'713.7
2017-Jul-17 01:31N 53°08' E 001°18'714.2
2017-Jul-17 01:00N 53°03' E 001°26'714.4
2017-Jul-17 00:31N 52°58' E 001°34'714.5
2017-Jul-17 00:01N 52°52' E 001°42'714.2
2017-Jul-16 23:31N 52°47' E 001°50'713.5
2017-Jul-16 23:00N 52°42' E 001°57'814.3
2017-Jul-16 22:27N 52°35' E 002°03'5416.4
2017-Jul-16 19:08N 51°45' E 002°39'317.2
2017-Jul-16 18:58N 51°42' E 002°41'816.7
2017-Jul-16 18:31N 51°36' E 002°47'816.5
2017-Jul-16 18:00N 51°29' E 002°55'714.9
2017-Jul-16 17:30N 51°24' E 003°04'612.7
2017-Jul-16 17:01N 51°21' E 003°12'1 1.2
2017-Jul-16 16:28N 51°20' E 003°11'0 0.0
2017-Jul-16 15:58N 51°20' E 003°11'0 0.0
2017-Jul-16 15:28N 51°20' E 003°11'0 0.0
2017-Jul-16 14:58N 51°20' E 003°11'0 0.0
2017-Jul-16 14:31N 51°20' E 003°11'0 0.0
2017-Jul-16 14:00N 51°20' E 003°11'0 0.0
2017-Jul-16 13:30N 51°20' E 003°11'0 0.0
2017-Jul-16 13:00N 51°20' E 003°11'0 0.0
2017-Jul-16 12:30N 51°20' E 003°11'0 0.0
2017-Jul-16 11:59N 51°20' E 003°11'0 0.0
2017-Jul-16 11:29N 51°20' E 003°11'0 0.0
2017-Jul-16 10:59N 51°20' E 003°11'0 0.0
2017-Jul-16 10:29N 51°20' E 003°11'0 0.0
2017-Jul-16 09:59N 51°20' E 003°11'0 0.0
2017-Jul-16 09:28N 51°20' E 003°11'0 0.0
2017-Jul-16 08:58N 51°20' E 003°11'0 0.0
2017-Jul-16 08:28N 51°20' E 003°11'0 0.0
2017-Jul-16 07:58N 51°20' E 003°11'0 0.0
2017-Jul-16 07:31N 51°20' E 003°11'1 1.8
2017-Jul-16 07:00N 51°21' E 003°12'713.3
2017-Jul-16 06:30N 51°24' E 003°03'815.7
2017-Jul-16 06:01N 51°28' E 002°52'815.0
2017-Jul-16 05:30N 51°34' E 002°44'714.3
2017-Jul-16 05:00N 51°40' E 002°39'5614.5
2017-Jul-16 01:11N 52°32' E 002°05'315.8
2017-Jul-16 01:01N 52°34' E 002°03'816.3
2017-Jul-16 00:30N 52°41' E 001°57'815.9
2017-Jul-16 00:01N 52°47' E 001°48'816.1
2017-Jul-15 23:31N 52°53' E 001°38'816.1
2017-Jul-15 23:01N 52°57' E 001°27'816.4
2017-Jul-15 22:31N 53°00' E 001°15'4917.1
2017-Jul-15 19:40N 53°32' E 000°14'214.8
2017-Jul-15 19:30N 53°33' E 000°09'714.5
2017-Jul-15 19:01N 53°36' W 000°02'612.4
2017-Jul-15 18:30N 53°38' W 000°11'611.5
2017-Jul-15 18:00N 53°44' W 000°15'1 2.2
2017-Jul-15 17:31N 53°44' W 000°16'0 0.2
2017-Jul-15 16:58N 53°45' W 000°16'0 0.0
2017-Jul-15 16:28N 53°45' W 000°16'0 0.0
2017-Jul-15 16:01N 53°45' W 000°16'0 0.0
2017-Jul-15 15:30N 53°45' W 000°16'0 0.0
2017-Jul-15 15:00N 53°45' W 000°16'0 0.0
2017-Jul-15 14:00N 53°45' W 000°16'0 0.0
2017-Jul-15 13:29N 53°45' W 000°16'0 0.0
2017-Jul-15 12:59N 53°45' W 000°16'0 0.0
2017-Jul-15 12:29N 53°45' W 000°16'0 0.0
2017-Jul-15 11:59N 53°45' W 000°16'0 0.0
2017-Jul-15 11:29N 53°45' W 000°16'0 0.0
2017-Jul-15 10:58N 53°45' W 000°16'0 0.0
2017-Jul-15 10:28N 53°45' W 000°16'0 0.0
2017-Jul-15 09:58N 53°45' W 000°16'0 0.0
2017-Jul-15 09:28N 53°45' W 000°16'0 0.0
2017-Jul-15 09:00N 53°45' W 000°16'0 0.0
2017-Jul-15 08:27N 53°45' W 000°16'0 0.0
2017-Jul-15 08:00N 53°45' W 000°16'0 0.2
2017-Jul-15 07:30N 53°44' W 000°16'2 3.4
2017-Jul-15 07:00N 53°43' W 000°15'713.2
2017-Jul-15 06:30N 53°38' W 000°08'714.1
2017-Jul-15 06:00N 53°35' E 000°03'3914.3
2017-Jul-15 03:16N 53°18' E 001°02'614.0
2017-Jul-15 02:49N 53°14' E 001°09'414.1
2017-Jul-15 02:30N 53°10' E 001°14'714.1
2017-Jul-15 02:00N 53°05' E 001°22'713.6
2017-Jul-15 01:30N 53°00' E 001°29'713.3
2017-Jul-15 01:00N 52°55' E 001°36'713.1
2017-Jul-15 00:30N 52°51' E 001°45'613.0
2017-Jul-15 00:00N 52°48' E 001°54'612.3
2017-Jul-14 23:30N 52°42' E 001°60'612.6
2017-Jul-14 23:00N 52°37' E 002°04'5115.2
2017-Jul-14 19:38N 51°49' E 002°37'316.8
2017-Jul-14 19:26N 51°46' E 002°38'816.8
2017-Jul-14 18:57N 51°39' E 002°44'716.4
2017-Jul-14 18:30N 51°33' E 002°51'815.9
2017-Jul-14 18:00N 51°27' E 002°59'714.0
2017-Jul-14 17:30N 51°24' E 003°09'4 6.6
2017-Jul-14 16:58N 51°20' E 003°11'0 0.0
2017-Jul-14 16:30N 51°20' E 003°11'0 0.0
2017-Jul-14 16:00N 51°20' E 003°11'0 0.0
2017-Jul-14 15:30N 51°20' E 003°11'0 0.0
2017-Jul-14 15:00N 51°20' E 003°11'0 0.0
2017-Jul-14 14:29N 51°20' E 003°11'0 0.0
2017-Jul-14 13:59N 51°20' E 003°11'0 0.0
2017-Jul-14 13:29N 51°20' E 003°11'0 0.0
2017-Jul-14 12:59N 51°20' E 003°11'0 0.0
2017-Jul-14 12:29N 51°20' E 003°11'0 0.0
2017-Jul-14 11:58N 51°20' E 003°11'0 0.0
2017-Jul-14 11:28N 51°20' E 003°11'0 0.0
2017-Jul-14 10:58N 51°20' E 003°11'0 0.0
2017-Jul-14 10:28N 51°20' E 003°11'0 0.0
2017-Jul-14 10:00N 51°20' E 003°11'0 0.0
2017-Jul-14 09:30N 51°20' E 003°11'0 0.0
2017-Jul-14 09:00N 51°20' E 003°11'0 0.0
2017-Jul-14 08:30N 51°20' E 003°11'0 0.0
2017-Jul-14 08:00N 51°20' E 003°11'0 0.0
2017-Jul-14 07:29N 51°20' E 003°11'0 0.0
2017-Jul-14 07:00N 51°20' E 003°11'2 3.5
2017-Jul-14 06:30N 51°22' E 003°11'714.6
2017-Jul-14 06:00N 51°25' E 003°00'714.8
2017-Jul-14 05:30N 51°29' E 002°51'815.0
2017-Jul-14 05:00N 51°35' E 002°43'2113.8
2017-Jul-14 03:28N 51°55' E 002°32'3415.8
2017-Jul-14 01:19N 52°27' E 002°11'517.2
2017-Jul-14 01:00N 52°32' E 002°07'917.4
2017-Jul-14 00:30N 52°39' E 002°00'917.7
2017-Jul-14 00:00N 52°46' E 001°51'918.1
2017-Jul-13 23:30N 52°51' E 001°39'918.0
2017-Jul-13 23:00N 52°56' E 001°26'918.5
2017-Jul-13 22:30N 53°00' E 001°13'1617.9
2017-Jul-13 21:38N 53°10' E 000°52'3017.5
2017-Jul-13 19:54N 53°31' E 000°16'615.2
2017-Jul-13 19:30N 53°33' E 000°07'714.7
2017-Jul-13 19:00N 53°36' W 000°04'712.8
2017-Jul-13 18:30N 53°40' W 000°13'4 9.0
2017-Jul-13 18:00N 53°44' W 000°16'0 0.5
2017-Jul-13 17:30N 53°45' W 000°16'0 0.3
2017-Jul-13 17:00N 53°45' W 000°16'0 0.0
2017-Jul-13 16:29N 53°45' W 000°16'0 0.0
2017-Jul-13 15:56N 53°45' W 000°16'0 0.0
2017-Jul-13 15:29N 53°45' W 000°16'0 0.0
2017-Jul-13 14:59N 53°45' W 000°16'0 0.0
2017-Jul-13 14:29N 53°45' W 000°16'0 0.0
2017-Jul-13 13:58N 53°45' W 000°16'0 0.0
2017-Jul-13 13:28N 53°45' W 000°16'0 0.0
2017-Jul-13 12:58N 53°45' W 000°16'0 0.0
2017-Jul-13 12:28N 53°45' W 000°16'0 0.0
2017-Jul-13 12:01N 53°45' W 000°16'0 0.0
2017-Jul-13 11:30N 53°45' W 000°16'0 0.0
2017-Jul-13 11:00N 53°45' W 000°16'0 0.0
2017-Jul-13 10:30N 53°45' W 000°16'0 0.0
2017-Jul-13 10:00N 53°45' W 000°16'0 0.0
2017-Jul-13 09:29N 53°45' W 000°16'0 0.0
2017-Jul-13 08:59N 53°45' W 000°16'0 0.0
2017-Jul-13 08:26N 53°45' W 000°16'0 0.0
2017-Jul-13 07:59N 53°45' W 000°16'0 0.0
2017-Jul-13 07:29N 53°45' W 000°16'0 0.2
2017-Jul-13 07:00N 53°44' W 000°16'1 1.6
2017-Jul-13 06:30N 53°44' W 000°16'713.7
2017-Jul-13 06:00N 53°38' W 000°09'816.0
2017-Jul-13 05:30N 53°35' E 000°03'1214.9
2017-Jul-13 04:41N 53°33' E 000°24'313.3
2017-Jul-13 04:29N 53°31' E 000°27'2114.1
2017-Jul-13 02:57N 53°21' E 000°59'715.0
2017-Jul-13 02:31N 53°16' E 001°07'815.5
2017-Jul-13 02:01N 53°10' E 001°15'815.9
2017-Jul-13 01:31N 53°04' E 001°24'816.1
2017-Jul-13 01:00N 52°59' E 001°33'815.5
2017-Jul-13 00:31N 52°53' E 001°42'815.1
2017-Jul-13 00:00N 52°48' E 001°52'713.7
2017-Jul-12 23:30N 52°43' E 001°60'713.3
2017-Jul-12 23:00N 52°37' E 002°02'6614.7
2017-Jul-12 18:32N 51°37' E 002°46'115.9
2017-Jul-12 18:30N 51°36' E 002°46'815.7
2017-Jul-12 18:00N 51°30' E 002°54'815.3
2017-Jul-12 17:31N 51°25' E 003°02'714.6
2017-Jul-12 17:00N 51°21' E 003°12'1 1.7
2017-Jul-12 16:30N 51°20' E 003°11'0 0.0
2017-Jul-12 16:00N 51°20' E 003°11'0 0.0
2017-Jul-12 15:30N 51°20' E 003°11'0 0.0
2017-Jul-12 15:00N 51°20' E 003°11'0 0.0
2017-Jul-12 13:59N 51°20' E 003°11'0 0.0
2017-Jul-12 13:29N 51°20' E 003°11'0 0.0
2017-Jul-12 12:59N 51°20' E 003°11'0 0.0
2017-Jul-12 12:29N 51°20' E 003°11'0 0.0
2017-Jul-12 11:58N 51°20' E 003°11'0 0.0
2017-Jul-12 11:25N 51°20' E 003°11'0 0.0
2017-Jul-12 10:58N 51°20' E 003°11'0 0.0
2017-Jul-12 10:28N 51°20' E 003°11'0 0.0
2017-Jul-12 10:00N 51°20' E 003°11'0 0.0
2017-Jul-12 09:30N 51°20' E 003°11'0 0.0
2017-Jul-12 09:00N 51°20' E 003°11'0 0.0
2017-Jul-12 08:30N 51°20' E 003°11'0 0.0
2017-Jul-12 08:00N 51°20' E 003°11'0 0.0
2017-Jul-12 07:29N 51°20' E 003°11'0 0.0
2017-Jul-12 06:59N 51°20' E 003°11'2 4.0
2017-Jul-12 06:30N 51°22' E 003°11'714.0
2017-Jul-12 06:00N 51°25' E 003°00'815.9
2017-Jul-12 05:30N 51°30' E 002°51'816.1
2017-Jul-12 05:00N 51°36' E 002°42'5815.1
2017-Jul-12 01:09N 52°31' E 002°09'316.8
2017-Jul-12 01:00N 52°33' E 002°08'817.0
2017-Jul-12 00:30N 52°41' E 002°04'917.2
2017-Jul-12 00:00N 52°47' E 001°54'917.7
2017-Jul-11 23:30N 52°52' E 001°41'917.7
2017-Jul-11 23:00N 52°56' E 001°28'917.8
2017-Jul-11 22:30N 52°59' E 001°14'4717.4
2017-Jul-11 19:48N 53°31' E 000°17'515.5
2017-Jul-11 19:30N 53°33' E 000°09'815.7
2017-Jul-11 19:00N 53°36' W 000°03'714.1
2017-Jul-11 18:30N 53°40' W 000°12'510.2
2017-Jul-11 18:00N 53°44' W 000°16'0 0.6
2017-Jul-11 17:30N 53°44' W 000°16'0 0.3
2017-Jul-11 16:59N 53°45' W 000°16'0 0.0
2017-Jul-11 16:29N 53°45' W 000°16'0 0.0
2017-Jul-11 15:59N 53°45' W 000°16'0 0.0
2017-Jul-11 15:29N 53°45' W 000°16'0 0.0
2017-Jul-11 14:59N 53°45' W 000°16'0 0.0
2017-Jul-11 14:28N 53°45' W 000°16'0 0.0
2017-Jul-11 13:58N 53°45' W 000°16'0 0.0
2017-Jul-11 13:28N 53°45' W 000°16'0 0.0
2017-Jul-11 12:58N 53°45' W 000°16'0 0.0
2017-Jul-11 12:30N 53°45' W 000°16'0 0.0
2017-Jul-11 12:00N 53°45' W 000°16'0 0.0
2017-Jul-11 11:30N 53°45' W 000°16'0 0.0
2017-Jul-11 11:00N 53°45' W 000°16'0 0.0
2017-Jul-11 10:24N 53°45' W 000°16'0 0.0
2017-Jul-11 09:59N 53°45' W 000°16'0 0.0
2017-Jul-11 09:29N 53°45' W 000°16'0 0.0
2017-Jul-11 08:59N 53°45' W 000°16'0 0.0
2017-Jul-11 08:29N 53°45' W 000°16'0 0.0
2017-Jul-11 07:59N 53°45' W 000°16'0 0.0
2017-Jul-11 07:28N 53°45' W 000°16'0 0.2
2017-Jul-11 07:00N 53°45' W 000°16'0 0.6
2017-Jul-11 06:31N 53°44' W 000°17'611.5
2017-Jul-11 06:01N 53°39' W 000°12'917.1
2017-Jul-11 05:31N 53°35' E 000°01'4115.5
2017-Jul-11 02:53N 53°18' E 001°03'616.1
2017-Jul-11 02:30N 53°13' E 001°09'  
Track history (hours):
 
Tides and Currents Weather Stations Pressure Air Temp Water Temp Dewpoint Dewpoint Depression Visibility Wind Speed Wind Dir Waves Ship Positions

Pride Of Bruges

Operator: P&O Ferries

Last reported at 2017-Jul-21 02:30 UTC. Time now 2017-Jul-21 02:33 UTC.
Position N 53°20' E 001°00'.

Length 180 m; draft 5.8 m.

Type: Ship (hazmat cat A). MMSI: 244387000.

Date/timePositionNaut miles runAvg speedWind from/ knotsBaromVisibWave heightAir tempDewpointWater temp
2017-Jul-21 02:30N 53°20' E 001°00'814.4
2017-Jul-21 01:58N 53°14' E 001°09'715.1
2017-Jul-21 01:30N 53°09' E 001°17'816.2
2017-Jul-21 01:00N 53°03' E 001°26'816.9
2017-Jul-21 00:30N 52°57' E 001°36'917.7
2017-Jul-21 00:00N 52°51' E 001°46'917.2
2017-Jul-20 23:30N 52°44' E 001°56'917.2
2017-Jul-20 23:00N 52°36' E 002°02'6415.6
2017-Jul-20 18:53N 51°38' E 002°45'615.6
2017-Jul-20 18:30N 51°33' E 002°51'815.5
2017-Jul-20 18:00N 51°27' E 002°58'714.5
2017-Jul-20 17:30N 51°24' E 003°08'4 6.9
2017-Jul-20 16:59N 51°20' E 003°11'0 0.0
2017-Jul-20 16:29N 51°20' E 003°11'0 0.0
2017-Jul-20 15:58N 51°20' E 003°11'0 0.0
2017-Jul-20 15:28N 51°20' E 003°11'0 0.0
2017-Jul-20 14:58N 51°20' E 003°11'0 0.0
2017-Jul-20 13:58N 51°20' E 003°11'0 0.0
2017-Jul-20 13:30N 51°20' E 003°11'0 0.0
2017-Jul-20 13:00N 51°20' E 003°11'0 0.0
2017-Jul-20 12:30N 51°20' E 003°11'0 0.0
2017-Jul-20 12:00N 51°20' E 003°11'0 0.0
2017-Jul-20 11:26N 51°20' E 003°11'0 0.0
2017-Jul-20 10:59N 51°20' E 003°11'0 0.0
2017-Jul-20 10:29N 51°20' E 003°11'0 0.0
2017-Jul-20 09:59N 51°20' E 003°11'0 0.0
2017-Jul-20 09:29N 51°20' E 003°11'0 0.0
2017-Jul-20 08:58N 51°20' E 003°11'0 0.0
2017-Jul-20 08:27N 51°20' E 003°11'0 0.0
2017-Jul-20 07:58N 51°20' E 003°11'0 0.0
2017-Jul-20 07:25N 51°20' E 003°11'0 0.0
2017-Jul-20 07:01N 51°20' E 003°11'2 3.8
2017-Jul-20 06:30N 51°22' E 003°11'815.8
2017-Jul-20 06:00N 51°25' E 002°59'815.5
2017-Jul-20 05:30N 51°30' E 002°49'815.8
2017-Jul-20 05:00N 51°36' E 002°41'816.8
2017-Jul-20 04:30N 51°44' E 002°38'4417.1
2017-Jul-20 01:56N 52°25' E 002°09'1316.6
2017-Jul-20 01:09N 52°37' E 002°01'8414.3
2017-Jul-19 19:15N 53°33' E 000°16'416.1
2017-Jul-19 18:59N 53°33' E 000°09'817.2
2017-Jul-19 18:30N 53°36' W 000°04'714.8
2017-Jul-19 18:00N 53°41' W 000°13'4 7.8
2017-Jul-19 17:30N 53°44' W 000°16'0 0.2
2017-Jul-19 17:00N 53°45' W 000°16'0 0.0
2017-Jul-19 16:28N 53°45' W 000°16'0 0.0
2017-Jul-19 15:58N 53°45' W 000°16'0 0.0
2017-Jul-19 15:28N 53°45' W 000°16'0 0.0
2017-Jul-19 14:55N 53°45' W 000°16'0 0.0
2017-Jul-19 14:30N 53°45' W 000°16'0 0.0
2017-Jul-19 14:00N 53°45' W 000°16'0 0.0
2017-Jul-19 13:30N 53°45' W 000°16'0 0.0
2017-Jul-19 13:00N 53°45' W 000°16'0 0.0
2017-Jul-19 12:30N 53°45' W 000°16'0 0.0
2017-Jul-19 11:59N 53°45' W 000°16'0 0.0
2017-Jul-19 11:29N 53°45' W 000°16'0 0.0
2017-Jul-19 10:59N 53°45' W 000°16'0 0.0
2017-Jul-19 10:29N 53°45' W 000°16'0 0.0
2017-Jul-19 09:59N 53°45' W 000°16'0 0.0
2017-Jul-19 09:28N 53°45' W 000°16'0 0.0
2017-Jul-19 08:58N 53°45' W 000°16'0 0.0
2017-Jul-19 08:28N 53°45' W 000°16'0 0.0
2017-Jul-19 07:58N 53°45' W 000°16'0 0.0
2017-Jul-19 07:30N 53°45' W 000°16'0 0.1
2017-Jul-19 07:00N 53°45' W 000°16'0 0.5
2017-Jul-19 06:31N 53°44' W 000°17'4 8.2
2017-Jul-19 06:00N 53°41' W 000°13'511.0
2017-Jul-19 05:31N 53°37' W 000°06'713.5
2017-Jul-19 05:00N 53°35' E 000°04'3713.6
2017-Jul-19 02:20N 53°19' E 000°60'514.4
2017-Jul-19 02:00N 53°16' E 001°05'714.0
2017-Jul-19 01:30N 53°11' E 001°13'714.0
2017-Jul-19 01:00N 53°06' E 001°21'714.1
2017-Jul-19 00:30N 53°00' E 001°28'714.3
2017-Jul-19 00:00N 52°55' E 001°36'815.0
2017-Jul-18 23:30N 52°50' E 001°45'815.2
2017-Jul-18 23:00N 52°45' E 001°54'816.5
2017-Jul-18 22:30N 52°37' E 002°00'816.8
2017-Jul-18 22:00N 52°29' E 002°05'916.9
2017-Jul-18 21:27N 52°21' E 002°11'817.3
2017-Jul-18 21:00N 52°14' E 002°16'917.1
2017-Jul-18 20:30N 52°06' E 002°22'816.9
2017-Jul-18 20:01N 51°58' E 002°28'816.9
2017-Jul-18 19:30N 51°51' E 002°34'816.6
2017-Jul-18 19:00N 51°43' E 002°40'816.3
2017-Jul-18 18:30N 51°36' E 002°47'816.2
2017-Jul-18 18:00N 51°30' E 002°55'815.4
2017-Jul-18 17:30N 51°25' E 003°04'612.7
2017-Jul-18 17:00N 51°21' E 003°12'0 0.7
2017-Jul-18 16:30N 51°20' E 003°11'0 0.0
2017-Jul-18 15:57N 51°20' E 003°11'0 0.0
2017-Jul-18 15:30N 51°20' E 003°11'0 0.0
2017-Jul-18 15:00N 51°20' E 003°11'0 0.0
2017-Jul-18 13:59N 51°20' E 003°11'0 0.0
2017-Jul-18 13:29N 51°20' E 003°11'0 0.0
2017-Jul-18 12:59N 51°20' E 003°11'0 0.0
2017-Jul-18 12:29N 51°20' E 003°11'0 0.0
2017-Jul-18 11:58N 51°20' E 003°11'0 0.0
2017-Jul-18 11:28N 51°20' E 003°11'0 0.0
2017-Jul-18 10:58N 51°20' E 003°11'0 0.0
2017-Jul-18 10:28N 51°20' E 003°11'0 0.0
2017-Jul-18 09:58N 51°20' E 003°11'0 0.0
2017-Jul-18 09:30N 51°20' E 003°11'0 0.0
2017-Jul-18 09:00N 51°20' E 003°11'0 0.0
2017-Jul-18 08:30N 51°20' E 003°11'0 0.0
2017-Jul-18 08:00N 51°20' E 003°11'0 0.0
2017-Jul-18 07:30N 51°20' E 003°11'0 0.0
2017-Jul-18 06:59N 51°20' E 003°11'1 2.2
2017-Jul-18 06:30N 51°21' E 003°12'815.1
2017-Jul-18 06:00N 51°25' E 003°01'815.0
2017-Jul-18 05:30N 51°29' E 002°51'815.7
2017-Jul-18 05:00N 51°35' E 002°43'816.0
2017-Jul-18 04:30N 51°42' E 002°37'816.5
2017-Jul-18 04:00N 51°50' E 002°33'917.4
2017-Jul-18 03:30N 51°58' E 002°28'917.8
2017-Jul-18 03:00N 52°06' E 002°23'918.1
2017-Jul-18 02:30N 52°15' E 002°17'918.2
2017-Jul-18 02:00N 52°23' E 002°11'918.1
2017-Jul-18 01:30N 52°31' E 002°05'918.4
2017-Jul-18 01:00N 52°40' E 001°59'918.0
2017-Jul-18 00:30N 52°47' E 001°50'918.0
2017-Jul-18 00:00N 52°52' E 001°38'917.5
2017-Jul-17 23:30N 52°57' E 001°25'917.4
2017-Jul-17 23:00N 53°00' E 001°12'1216.5
2017-Jul-17 22:16N 53°08' E 000°56'416.6
2017-Jul-17 22:00N 53°11' E 000°51'1716.5
2017-Jul-17 20:56N 53°23' E 000°30'816.5
2017-Jul-17 20:28N 53°29' E 000°21'715.2
2017-Jul-17 20:00N 53°33' E 000°11'714.2
2017-Jul-17 19:30N 53°35' E 000°00'713.3
2017-Jul-17 19:00N 53°38' W 000°10'612.2
2017-Jul-17 18:30N 53°43' W 000°15'1 2.7
2017-Jul-17 18:00N 53°44' W 000°16'0 0.2
2017-Jul-17 17:30N 53°45' W 000°16'0 0.0
2017-Jul-17 17:00N 53°45' W 000°16'0 0.0
2017-Jul-17 16:30N 53°45' W 000°16'0 0.0
2017-Jul-17 16:00N 53°45' W 000°16'0 0.0
2017-Jul-17 15:30N 53°45' W 000°16'0 0.0
2017-Jul-17 14:59N 53°45' W 000°16'0 0.0
2017-Jul-17 14:29N 53°45' W 000°16'0 0.0
2017-Jul-17 13:59N 53°45' W 000°16'0 0.0
2017-Jul-17 13:23N 53°45' W 000°16'0 0.0
2017-Jul-17 12:59N 53°45' W 000°16'0 0.0
2017-Jul-17 12:28N 53°45' W 000°16'0 0.0
2017-Jul-17 11:58N 53°45' W 000°16'0 0.0
2017-Jul-17 11:28N 53°45' W 000°16'0 0.0
2017-Jul-17 10:58N 53°45' W 000°16'0 0.0
2017-Jul-17 10:31N 53°45' W 000°16'0 0.0
2017-Jul-17 10:00N 53°45' W 000°16'0 0.0
2017-Jul-17 09:30N 53°45' W 000°16'0 0.0
2017-Jul-17 09:00N 53°45' W 000°16'0 0.0
2017-Jul-17 08:30N 53°45' W 000°16'0 0.0
2017-Jul-17 07:59N 53°45' W 000°16'0 0.0
2017-Jul-17 07:30N 53°45' W 000°16'0 0.2
2017-Jul-17 07:00N 53°44' W 000°16'1 1.4
2017-Jul-17 06:30N 53°44' W 000°16'713.9
2017-Jul-17 06:01N 53°38' W 000°10'713.3
2017-Jul-17 05:30N 53°35' E 000°00'714.0
2017-Jul-17 05:00N 53°33' E 000°12'3813.5
2017-Jul-17 02:11N 53°15' E 001°07'213.5
2017-Jul-17 02:00N 53°13' E 001°10'713.7
2017-Jul-17 01:31N 53°08' E 001°18'714.2
2017-Jul-17 01:00N 53°03' E 001°26'714.4
2017-Jul-17 00:31N 52°58' E 001°34'714.5
2017-Jul-17 00:01N 52°52' E 001°42'714.2
2017-Jul-16 23:31N 52°47' E 001°50'713.5
2017-Jul-16 23:00N 52°42' E 001°57'814.3
2017-Jul-16 22:27N 52°35' E 002°03'5416.4
2017-Jul-16 19:08N 51°45' E 002°39'317.2
2017-Jul-16 18:58N 51°42' E 002°41'816.7
2017-Jul-16 18:31N 51°36' E 002°47'816.5
2017-Jul-16 18:00N 51°29' E 002°55'714.9
2017-Jul-16 17:30N 51°24' E 003°04'612.7
2017-Jul-16 17:01N 51°21' E 003°12'1 1.2
2017-Jul-16 16:28N 51°20' E 003°11'0 0.0
2017-Jul-16 15:58N 51°20' E 003°11'0 0.0
2017-Jul-16 15:28N 51°20' E 003°11'0 0.0
2017-Jul-16 14:58N 51°20' E 003°11'0 0.0
2017-Jul-16 14:31N 51°20' E 003°11'0 0.0
2017-Jul-16 14:00N 51°20' E 003°11'0 0.0
2017-Jul-16 13:30N 51°20' E 003°11'0 0.0
2017-Jul-16 13:00N 51°20' E 003°11'0 0.0
2017-Jul-16 12:30N 51°20' E 003°11'0 0.0
2017-Jul-16 11:59N 51°20' E 003°11'0 0.0
2017-Jul-16 11:29N 51°20' E 003°11'0 0.0
2017-Jul-16 10:59N 51°20' E 003°11'0 0.0
2017-Jul-16 10:29N 51°20' E 003°11'0 0.0
2017-Jul-16 09:59N 51°20' E 003°11'0 0.0
2017-Jul-16 09:28N 51°20' E 003°11'0 0.0
2017-Jul-16 08:58N 51°20' E 003°11'0 0.0
2017-Jul-16 08:28N 51°20' E 003°11'0 0.0
2017-Jul-16 07:58N 51°20' E 003°11'0 0.0
2017-Jul-16 07:31N 51°20' E 003°11'1 1.8
2017-Jul-16 07:00N 51°21' E 003°12'713.3
2017-Jul-16 06:30N 51°24' E 003°03'815.7
2017-Jul-16 06:01N 51°28' E 002°52'815.0
2017-Jul-16 05:30N 51°34' E 002°44'714.3
2017-Jul-16 05:00N 51°40' E 002°39'5614.5
2017-Jul-16 01:11N 52°32' E 002°05'315.8
2017-Jul-16 01:01N 52°34' E 002°03'816.3
2017-Jul-16 00:30N 52°41' E 001°57'815.9
2017-Jul-16 00:01N 52°47' E 001°48'816.1
2017-Jul-15 23:31N 52°53' E 001°38'816.1
2017-Jul-15 23:01N 52°57' E 001°27'816.4
2017-Jul-15 22:31N 53°00' E 001°15'4917.1
2017-Jul-15 19:40N 53°32' E 000°14'214.8
2017-Jul-15 19:30N 53°33' E 000°09'714.5
2017-Jul-15 19:01N 53°36' W 000°02'612.4
2017-Jul-15 18:30N 53°38' W 000°11'611.5
2017-Jul-15 18:00N 53°44' W 000°15'1 2.2
2017-Jul-15 17:31N 53°44' W 000°16'0 0.2
2017-Jul-15 16:58N 53°45' W 000°16'0 0.0
2017-Jul-15 16:28N 53°45' W 000°16'0 0.0
2017-Jul-15 16:01N 53°45' W 000°16'0 0.0
2017-Jul-15 15:30N 53°45' W 000°16'0 0.0
2017-Jul-15 15:00N 53°45' W 000°16'0 0.0
2017-Jul-15 14:00N 53°45' W 000°16'0 0.0
2017-Jul-15 13:29N 53°45' W 000°16'0 0.0
2017-Jul-15 12:59N 53°45' W 000°16'0 0.0
2017-Jul-15 12:29N 53°45' W 000°16'0 0.0
2017-Jul-15 11:59N 53°45' W 000°16'0 0.0
2017-Jul-15 11:29N 53°45' W 000°16'0 0.0
2017-Jul-15 10:58N 53°45' W 000°16'0 0.0
2017-Jul-15 10:28N 53°45' W 000°16'0 0.0
2017-Jul-15 09:58N 53°45' W 000°16'0 0.0
2017-Jul-15 09:28N 53°45' W 000°16'0 0.0
2017-Jul-15 09:00N 53°45' W 000°16'0 0.0
2017-Jul-15 08:27N 53°45' W 000°16'0 0.0
2017-Jul-15 08:00N 53°45' W 000°16'0 0.2
2017-Jul-15 07:30N 53°44' W 000°16'2 3.4
2017-Jul-15 07:00N 53°43' W 000°15'713.2
2017-Jul-15 06:30N 53°38' W 000°08'714.1
2017-Jul-15 06:00N 53°35' E 000°03'3914.3
2017-Jul-15 03:16N 53°18' E 001°02'614.0
2017-Jul-15 02:49N 53°14' E 001°09'414.1
2017-Jul-15 02:30N 53°10' E 001°14'714.1
2017-Jul-15 02:00N 53°05' E 001°22'713.6
2017-Jul-15 01:30N 53°00' E 001°29'713.3
2017-Jul-15 01:00N 52°55' E 001°36'713.1
2017-Jul-15 00:30N 52°51' E 001°45'613.0
2017-Jul-15 00:00N 52°48' E 001°54'612.3
2017-Jul-14 23:30N 52°42' E 001°60'612.6
2017-Jul-14 23:00N 52°37' E 002°04'5115.2
2017-Jul-14 19:38N 51°49' E 002°37'316.8
2017-Jul-14 19:26N 51°46' E 002°38'816.8
2017-Jul-14 18:57N 51°39' E 002°44'716.4
2017-Jul-14 18:30N 51°33' E 002°51'815.9
2017-Jul-14 18:00N 51°27' E 002°59'714.0
2017-Jul-14 17:30N 51°24' E 003°09'4 6.6
2017-Jul-14 16:58N 51°20' E 003°11'0 0.0
2017-Jul-14 16:30N 51°20' E 003°11'0 0.0
2017-Jul-14 16:00N 51°20' E 003°11'0 0.0
2017-Jul-14 15:30N 51°20' E 003°11'0 0.0
2017-Jul-14 15:00N 51°20' E 003°11'0 0.0
2017-Jul-14 14:29N 51°20' E 003°11'0 0.0
2017-Jul-14 13:59N 51°20' E 003°11'0 0.0
2017-Jul-14 13:29N 51°20' E 003°11'0 0.0
2017-Jul-14 12:59N 51°20' E 003°11'0 0.0
2017-Jul-14 12:29N 51°20' E 003°11'0 0.0
2017-Jul-14 11:58N 51°20' E 003°11'0 0.0
2017-Jul-14 11:28N 51°20' E 003°11'0 0.0
2017-Jul-14 10:58N 51°20' E 003°11'0 0.0
2017-Jul-14 10:28N 51°20' E 003°11'0 0.0
2017-Jul-14 10:00N 51°20' E 003°11'0 0.0
2017-Jul-14 09:30N 51°20' E 003°11'0 0.0
2017-Jul-14 09:00N 51°20' E 003°11'0 0.0
2017-Jul-14 08:30N 51°20' E 003°11'0 0.0
2017-Jul-14 08:00N 51°20' E 003°11'0 0.0
2017-Jul-14 07:29N 51°20' E 003°11'0 0.0
2017-Jul-14 07:00N 51°20' E 003°11'2 3.5
2017-Jul-14 06:30N 51°22' E 003°11'714.6
2017-Jul-14 06:00N 51°25' E 003°00'714.8
2017-Jul-14 05:30N 51°29' E 002°51'815.0
2017-Jul-14 05:00N 51°35' E 002°43'2113.8
2017-Jul-14 03:28N 51°55' E 002°32'3415.8
2017-Jul-14 01:19N 52°27' E 002°11'517.2
2017-Jul-14 01:00N 52°32' E 002°07'917.4
2017-Jul-14 00:30N 52°39' E 002°00'917.7
2017-Jul-14 00:00N 52°46' E 001°51'918.1
2017-Jul-13 23:30N 52°51' E 001°39'918.0
2017-Jul-13 23:00N 52°56' E 001°26'918.5
2017-Jul-13 22:30N 53°00' E 001°13'1617.9
2017-Jul-13 21:38N 53°10' E 000°52'3017.5
2017-Jul-13 19:54N 53°31' E 000°16'615.2
2017-Jul-13 19:30N 53°33' E 000°07'714.7
2017-Jul-13 19:00N 53°36' W 000°04'712.8
2017-Jul-13 18:30N 53°40' W 000°13'4 9.0
2017-Jul-13 18:00N 53°44' W 000°16'0 0.5
2017-Jul-13 17:30N 53°45' W 000°16'0 0.3
2017-Jul-13 17:00N 53°45' W 000°16'0 0.0
2017-Jul-13 16:29N 53°45' W 000°16'0 0.0
2017-Jul-13 15:56N 53°45' W 000°16'0 0.0
2017-Jul-13 15:29N 53°45' W 000°16'0 0.0
2017-Jul-13 14:59N 53°45' W 000°16'0 0.0
2017-Jul-13 14:29N 53°45' W 000°16'0 0.0
2017-Jul-13 13:58N 53°45' W 000°16'0 0.0
2017-Jul-13 13:28N 53°45' W 000°16'0 0.0
2017-Jul-13 12:58N 53°45' W 000°16'0 0.0
2017-Jul-13 12:28N 53°45' W 000°16'0 0.0
2017-Jul-13 12:01N 53°45' W 000°16'0 0.0
2017-Jul-13 11:30N 53°45' W 000°16'0 0.0
2017-Jul-13 11:00N 53°45' W 000°16'0 0.0
2017-Jul-13 10:30N 53°45' W 000°16'0 0.0
2017-Jul-13 10:00N 53°45' W 000°16'0 0.0
2017-Jul-13 09:29N 53°45' W 000°16'0 0.0
2017-Jul-13 08:59N 53°45' W 000°16'0 0.0
2017-Jul-13 08:26N 53°45' W 000°16'0 0.0
2017-Jul-13 07:59N 53°45' W 000°16'0 0.0
2017-Jul-13 07:29N 53°45' W 000°16'0 0.2
2017-Jul-13 07:00N 53°44' W 000°16'1 1.6
2017-Jul-13 06:30N 53°44' W 000°16'713.7
2017-Jul-13 06:00N 53°38' W 000°09'816.0
2017-Jul-13 05:30N 53°35' E 000°03'1214.9
2017-Jul-13 04:41N 53°33' E 000°24'313.3
2017-Jul-13 04:29N 53°31' E 000°27'2114.1
2017-Jul-13 02:57N 53°21' E 000°59'715.0
2017-Jul-13 02:31N 53°16' E 001°07'815.5
2017-Jul-13 02:01N 53°10' E 001°15'815.9
2017-Jul-13 01:31N 53°04' E 001°24'816.1
2017-Jul-13 01:00N 52°59' E 001°33'815.5
2017-Jul-13 00:31N 52°53' E 001°42'815.1
2017-Jul-13 00:00N 52°48' E 001°52'713.7
2017-Jul-12 23:30N 52°43' E 001°60'713.3
2017-Jul-12 23:00N 52°37' E 002°02'6614.7
2017-Jul-12 18:32N 51°37' E 002°46'115.9
2017-Jul-12 18:30N 51°36' E 002°46'815.7
2017-Jul-12 18:00N 51°30' E 002°54'815.3
2017-Jul-12 17:31N 51°25' E 003°02'714.6
2017-Jul-12 17:00N 51°21' E 003°12'1 1.7
2017-Jul-12 16:30N 51°20' E 003°11'0 0.0
2017-Jul-12 16:00N 51°20' E 003°11'0 0.0
2017-Jul-12 15:30N 51°20' E 003°11'0 0.0
2017-Jul-12 15:00N 51°20' E 003°11'0 0.0
2017-Jul-12 13:59N 51°20' E 003°11'0 0.0
2017-Jul-12 13:29N 51°20' E 003°11'0 0.0
2017-Jul-12 12:59N 51°20' E 003°11'0 0.0
2017-Jul-12 12:29N 51°20' E 003°11'0 0.0
2017-Jul-12 11:58N 51°20' E 003°11'0 0.0
2017-Jul-12 11:25N 51°20' E 003°11'0 0.0
2017-Jul-12 10:58N 51°20' E 003°11'0 0.0
2017-Jul-12 10:28N 51°20' E 003°11'0 0.0
2017-Jul-12 10:00N 51°20' E 003°11'0 0.0
2017-Jul-12 09:30N 51°20' E 003°11'0 0.0
2017-Jul-12 09:00N 51°20' E 003°11'0 0.0
2017-Jul-12 08:30N 51°20' E 003°11'0 0.0
2017-Jul-12 08:00N 51°20' E 003°11'0 0.0
2017-Jul-12 07:29N 51°20' E 003°11'0 0.0
2017-Jul-12 06:59N 51°20' E 003°11'2 4.0
2017-Jul-12 06:30N 51°22' E 003°11'714.0
2017-Jul-12 06:00N 51°25' E 003°00'815.9
2017-Jul-12 05:30N 51°30' E 002°51'816.1
2017-Jul-12 05:00N 51°36' E 002°42'5815.1
2017-Jul-12 01:09N 52°31' E 002°09'316.8
2017-Jul-12 01:00N 52°33' E 002°08'817.0
2017-Jul-12 00:30N 52°41' E 002°04'917.2
2017-Jul-12 00:00N 52°47' E 001°54'917.7
2017-Jul-11 23:30N 52°52' E 001°41'917.7
2017-Jul-11 23:00N 52°56' E 001°28'917.8
2017-Jul-11 22:30N 52°59' E 001°14'4717.4
2017-Jul-11 19:48N 53°31' E 000°17'515.5
2017-Jul-11 19:30N 53°33' E 000°09'815.7
2017-Jul-11 19:00N 53°36' W 000°03'714.1
2017-Jul-11 18:30N 53°40' W 000°12'510.2
2017-Jul-11 18:00N 53°44' W 000°16'0 0.6
2017-Jul-11 17:30N 53°44' W 000°16'0 0.3
2017-Jul-11 16:59N 53°45' W 000°16'0 0.0
2017-Jul-11 16:29N 53°45' W 000°16'0 0.0
2017-Jul-11 15:59N 53°45' W 000°16'0 0.0
2017-Jul-11 15:29N 53°45' W 000°16'0 0.0
2017-Jul-11 14:59N 53°45' W 000°16'0 0.0
2017-Jul-11 14:28N 53°45' W 000°16'0 0.0
2017-Jul-11 13:58N 53°45' W 000°16'0 0.0
2017-Jul-11 13:28N 53°45' W 000°16'0 0.0
2017-Jul-11 12:58N 53°45' W 000°16'0 0.0
2017-Jul-11 12:30N 53°45' W 000°16'0 0.0
2017-Jul-11 12:00N 53°45' W 000°16'0 0.0
2017-Jul-11 11:30N 53°45' W 000°16'0 0.0
2017-Jul-11 11:00N 53°45' W 000°16'0 0.0
2017-Jul-11 10:24N 53°45' W 000°16'0 0.0
2017-Jul-11 09:59N 53°45' W 000°16'0 0.0
2017-Jul-11 09:29N 53°45' W 000°16'0 0.0
2017-Jul-11 08:59N 53°45' W 000°16'0 0.0
2017-Jul-11 08:29N 53°45' W 000°16'0 0.0
2017-Jul-11 07:59N 53°45' W 000°16'0 0.0
2017-Jul-11 07:28N 53°45' W 000°16'0 0.2
2017-Jul-11 07:00N 53°45' W 000°16'0 0.6
2017-Jul-11 06:31N 53°44' W 000°17'611.5
2017-Jul-11 06:01N 53°39' W 000°12'917.1
2017-Jul-11 05:31N 53°35' E 000°01'4115.5
2017-Jul-11 02:53N 53°18' E 001°03'616.1
2017-Jul-11 02:30N 53°13' E 001°09'  

Dump ship's entire track history